createdAt,value
2018-04-06T00:01:17.650Z,2.97
2018-04-06T00:03:45.187Z,3.60
2018-04-06T00:06:12.659Z,12.10
2018-04-06T00:08:40.142Z,1.25
2018-04-06T00:11:07.627Z,8.73
2018-04-06T00:13:35.093Z,6.30
2018-04-06T00:16:02.567Z,2.92
2018-04-06T00:18:30.032Z,5.00
2018-04-06T00:20:57.499Z,3.80
2018-04-06T00:23:24.962Z,2.50
2018-04-06T00:25:52.547Z,4.28
2018-04-06T00:28:20.022Z,3.60
2018-04-06T00:30:47.496Z,6.37
2018-04-06T00:33:14.960Z,3.60
2018-04-06T00:35:42.420Z,1.33
2018-04-06T00:38:09.919Z,3.08
2018-04-06T00:40:37.572Z,2.28
2018-04-06T00:43:05.067Z,1.50
2018-04-06T00:45:32.539Z,1.30
2018-04-06T00:48:00.003Z,2.17
2018-04-06T00:50:27.455Z,1.30
2018-04-06T00:52:54.935Z,1.85
2018-04-06T00:55:22.397Z,1.92
2018-04-06T00:57:49.853Z,1.77
2018-04-06T01:00:17.336Z,1.60
2018-04-06T01:02:44.804Z,2.25
2018-04-06T01:05:12.287Z,4.22
2018-04-06T01:07:39.760Z,1.80
2018-04-06T01:10:07.253Z,1.50
2018-04-06T01:12:34.723Z,4.43
2018-04-06T01:15:02.193Z,2.10
2018-04-06T01:17:29.667Z,2.05
2018-04-06T01:19:57.133Z,2.65
2018-04-06T01:22:24.608Z,2.25
2018-04-06T01:24:52.073Z,4.25
2018-04-06T01:27:19.545Z,1.23
2018-04-06T01:29:47.004Z,2.30
2018-04-06T01:32:14.499Z,1.50
2018-04-06T01:34:41.962Z,2.10
2018-04-06T01:37:09.423Z,1.00
2018-04-06T01:39:36.893Z,1.58
2018-04-06T01:42:04.136Z,1.87
2018-04-06T01:44:31.607Z,1.33
2018-04-06T01:46:59.062Z,1.20
2018-04-06T01:49:26.536Z,4.57
2018-04-06T01:51:54.027Z,1.95
2018-04-06T01:54:21.511Z,2.33
2018-04-06T01:56:48.978Z,3.53
2018-04-06T01:59:16.460Z,2.12
2018-04-06T02:01:43.939Z,1.83
2018-04-06T02:04:11.404Z,1.52
2018-04-06T02:06:38.654Z,1.60
2018-04-06T02:09:05.894Z,1.00
2018-04-06T02:11:33.580Z,18.60
2018-04-06T02:14:01.051Z,2.28
2018-04-06T02:16:28.528Z,1.35
2018-04-06T02:18:55.994Z,2.45
2018-04-06T02:21:23.456Z,3.53
2018-04-06T02:23:50.944Z,1.73
2018-04-06T02:26:18.403Z,1.40
2018-04-06T02:28:45.870Z,5.10
2018-04-06T02:31:13.334Z,1.60
2018-04-06T02:33:40.808Z,2.17
2018-04-06T02:36:08.286Z,9.05
2018-04-06T02:38:35.748Z,1.87
2018-04-06T02:41:03.000Z,1.30
2018-04-06T02:43:30.468Z,2.20
2018-04-06T02:45:57.957Z,2.05
2018-04-06T02:48:25.415Z,1.70
2018-04-06T02:50:52.921Z,3.62
2018-04-06T02:53:20.597Z,8.77
2018-04-06T02:55:48.084Z,1.50
2018-04-06T02:58:15.608Z,1.70
2018-04-06T03:00:43.205Z,1.90
2018-04-06T03:03:10.710Z,1.73
2018-04-06T03:05:38.374Z,2.80
2018-04-06T03:08:05.838Z,2.28
2018-04-06T03:10:33.303Z,1.52
2018-04-06T03:13:00.801Z,3.65
2018-04-06T03:15:28.263Z,1.65
2018-04-06T03:17:55.724Z,1.37
2018-04-06T03:20:23.203Z,1.40
2018-04-06T03:22:50.662Z,2.08
2018-04-06T03:25:18.144Z,2.80
2018-04-06T03:27:45.623Z,1.92
2018-04-06T03:30:13.080Z,2.55
2018-04-06T03:32:40.553Z,3.30
2018-04-06T03:35:08.003Z,2.97
2018-04-06T03:37:35.478Z,1.20
2018-04-06T03:40:02.955Z,1.08
2018-04-06T03:42:30.428Z,2.15
2018-04-06T03:44:57.906Z,5.37
2018-04-06T03:47:25.386Z,1.80
2018-04-06T03:49:52.861Z,5.65
2018-04-06T03:52:20.518Z,2.75
2018-04-06T03:54:48.001Z,1.55
2018-04-06T03:57:15.467Z,1.60
2018-04-06T03:59:42.938Z,2.05
2018-04-06T04:02:10.495Z,2.37
2018-04-06T04:04:37.960Z,1.80
2018-04-06T04:07:05.425Z,1.90
2018-04-06T04:09:32.916Z,2.10
2018-04-06T04:12:00.387Z,1.50
2018-04-06T04:14:27.843Z,3.90
2018-04-06T04:16:55.329Z,4.65
2018-04-06T04:19:22.838Z,1.75
2018-04-06T04:21:50.312Z,6.35
2018-04-06T04:24:17.788Z,2.22
2018-04-06T04:26:45.267Z,1.75
2018-04-06T04:29:12.735Z,6.40
2018-04-06T04:31:40.222Z,1.80
2018-04-06T04:34:07.702Z,2.10
2018-04-06T04:36:35.176Z,1.70
2018-04-06T04:39:02.647Z,3.67
2018-04-06T04:41:30.117Z,2.30
2018-04-06T04:43:57.596Z,2.92
2018-04-06T04:46:25.059Z,1.85
2018-04-06T04:48:52.536Z,2.28
2018-04-06T04:51:20.041Z,1.42
2018-04-06T04:53:47.713Z,1.65
2018-04-06T04:56:15.190Z,2.08
2018-04-06T04:58:42.683Z,2.00
2018-04-06T05:01:10.160Z,2.95
2018-04-06T05:03:37.624Z,2.50
2018-04-06T05:06:05.103Z,3.65
2018-04-06T05:08:32.571Z,2.45
2018-04-06T05:11:00.044Z,4.55
2018-04-06T05:13:27.520Z,2.12
2018-04-06T05:15:54.996Z,1.85
2018-04-06T05:18:22.474Z,3.75
2018-04-06T05:20:49.952Z,3.12
2018-04-06T05:23:17.419Z,3.65
2018-04-06T05:25:44.888Z,2.22
2018-04-06T05:28:12.378Z,2.22
2018-04-06T05:30:39.835Z,3.45
2018-04-06T05:33:07.311Z,2.53
2018-04-06T05:35:34.822Z,2.15
2018-04-06T05:38:02.308Z,2.15
2018-04-06T05:40:29.794Z,2.60
2018-04-06T05:42:57.306Z,5.03
2018-04-06T05:45:24.803Z,9.52
2018-04-06T05:47:52.300Z,2.35
2018-04-06T05:50:19.813Z,3.87
2018-04-06T05:52:47.317Z,3.20
2018-04-06T05:55:14.784Z,5.35
2018-04-06T05:57:42.255Z,3.17
2018-04-06T06:00:09.769Z,3.80
2018-04-06T06:02:37.236Z,2.50
2018-04-06T06:05:04.740Z,4.15
2018-04-06T06:07:32.259Z,4.43
2018-04-06T06:09:59.751Z,5.90
2018-04-06T06:12:27.287Z,4.85
2018-04-06T06:14:54.759Z,23.92
2018-04-06T06:17:22.295Z,11.57
2018-04-06T06:19:49.771Z,4.93
2018-04-06T06:22:17.257Z,11.20
2018-04-06T06:24:44.723Z,4.30
2018-04-06T06:27:12.188Z,7.93
2018-04-06T06:29:39.667Z,6.80
2018-04-06T06:32:07.145Z,10.35
2018-04-06T06:34:34.635Z,6.18
2018-04-06T06:37:02.100Z,5.80
2018-04-06T06:39:29.576Z,7.05
2018-04-06T06:41:57.036Z,6.47
2018-04-06T06:44:24.303Z,6.80
2018-04-06T06:46:51.828Z,8.25
2018-04-06T06:49:19.087Z,9.27
2018-04-06T06:51:46.564Z,10.05
2018-04-06T06:54:14.049Z,7.68
2018-04-06T06:56:41.556Z,8.52
2018-04-06T06:59:09.053Z,10.95
2018-04-06T07:01:36.592Z,10.00
2018-04-06T07:04:04.078Z,12.35
2018-04-06T07:06:31.567Z,8.38
2018-04-06T07:08:59.056Z,7.65
2018-04-06T07:11:26.571Z,9.52
2018-04-06T07:13:54.052Z,8.52
2018-04-06T07:16:21.559Z,14.73
2018-04-06T07:18:49.059Z,7.97
2018-04-06T07:21:16.621Z,6.57
2018-04-06T07:23:44.094Z,9.68
2018-04-06T07:26:11.641Z,11.05
2018-04-06T07:28:39.277Z,8.85
2018-04-06T07:31:06.821Z,9.88
2018-04-06T07:33:34.716Z,7.12
2018-04-06T07:36:01.956Z,7.18
2018-04-06T07:38:29.452Z,8.48
2018-04-06T07:40:56.941Z,10.63
2018-04-06T07:43:24.431Z,8.07
2018-04-06T07:45:51.891Z,6.40
2018-04-06T07:48:19.432Z,9.15
2018-04-06T07:50:46.906Z,5.90
2018-04-06T07:53:14.586Z,6.37
2018-04-06T07:55:42.080Z,6.30
2018-04-06T07:58:09.566Z,7.18
2018-04-06T08:00:37.081Z,8.55
2018-04-06T08:03:04.546Z,5.82
2018-04-06T08:05:32.039Z,5.82
2018-04-06T08:07:59.299Z,14.82
2018-04-06T08:10:26.811Z,5.43
2018-04-06T08:12:54.326Z,7.68
2018-04-06T08:15:22.491Z,6.62
2018-04-06T08:17:50.196Z,11.90
2018-04-06T08:20:17.774Z,9.48
2018-04-06T08:22:45.928Z,8.18
2018-04-06T08:25:13.409Z,9.05
2018-04-06T08:27:40.908Z,6.72
2018-04-06T08:30:08.397Z,6.80
2018-04-06T08:32:35.876Z,9.00
2018-04-06T08:35:03.371Z,6.45
2018-04-06T08:37:30.867Z,6.47
2018-04-06T08:39:58.353Z,7.55
2018-04-06T08:42:25.851Z,6.15
2018-04-06T08:44:53.530Z,10.00
2018-04-06T08:47:21.040Z,8.18
2018-04-06T08:49:48.531Z,8.30
2018-04-06T08:52:16.047Z,13.73
2018-04-06T08:54:43.582Z,17.35
2018-04-06T08:57:11.252Z,7.43
2018-04-06T08:59:38.736Z,6.10
2018-04-06T09:02:06.221Z,7.40
2018-04-06T09:04:33.732Z,6.05
2018-04-06T09:07:01.407Z,12.07
2018-04-06T09:09:28.902Z,11.30
2018-04-06T09:11:56.396Z,7.70
2018-04-06T09:14:23.889Z,10.10
2018-04-06T09:16:51.158Z,11.73
2018-04-06T09:19:18.423Z,7.50
2018-04-06T09:21:45.900Z,8.55
2018-04-06T09:24:13.399Z,6.87
2018-04-06T09:26:40.881Z,6.80
2018-04-06T09:29:08.370Z,6.70
2018-04-06T09:31:35.850Z,8.70
2018-04-06T09:34:03.358Z,7.18
2018-04-06T09:36:30.848Z,9.73
2018-04-06T09:38:58.334Z,8.07
2018-04-06T09:41:25.966Z,10.13
2018-04-06T09:43:53.439Z,7.50
2018-04-06T09:46:20.737Z,7.90
2018-04-06T09:48:47.919Z,10.00
2018-04-06T09:51:15.112Z,8.33
2018-04-06T09:53:42.300Z,14.80
2018-04-06T09:56:09.477Z,8.70
2018-04-06T09:58:36.664Z,7.93
2018-04-06T10:01:06.626Z,8.25
2018-04-06T10:03:33.852Z,8.40
2018-04-06T10:06:01.337Z,7.03
2018-04-06T10:08:28.826Z,11.20
2018-04-06T10:10:56.059Z,8.52
2018-04-06T10:13:23.544Z,6.62
2018-04-06T10:15:51.031Z,6.78
2018-04-06T10:18:20.051Z,6.25
2018-04-06T10:20:47.552Z,6.43
2018-04-06T10:23:15.054Z,5.97
2018-04-06T10:25:42.307Z,7.32
2018-04-06T10:28:09.776Z,6.82
2018-04-06T10:30:37.291Z,7.90
2018-04-06T10:33:04.759Z,5.60
2018-04-06T10:35:31.975Z,6.40
2018-04-06T10:37:59.173Z,9.97
2018-04-06T10:40:26.685Z,8.43
2018-04-06T10:42:54.325Z,5.45
2018-04-06T10:45:22.020Z,7.78
2018-04-06T10:47:49.527Z,5.15
2018-04-06T10:50:17.184Z,6.00
2018-04-06T10:52:44.664Z,6.53
2018-04-06T10:55:12.139Z,5.75
2018-04-06T10:57:39.652Z,6.78
2018-04-06T11:00:06.866Z,4.43
2018-04-06T11:02:34.066Z,4.93
2018-04-06T11:05:01.032Z,6.30
2018-04-06T11:07:28.224Z,4.70
2018-04-06T11:09:55.445Z,10.70
2018-04-06T11:12:22.664Z,4.00
2018-04-06T11:14:49.892Z,4.67
2018-04-06T11:17:17.075Z,6.27
2018-04-06T11:19:44.277Z,9.53
2018-04-06T11:22:11.541Z,6.65
2018-04-06T11:24:38.720Z,6.33
2018-04-06T11:27:05.902Z,4.43
2018-04-06T11:29:33.391Z,6.25
2018-04-06T11:32:00.589Z,5.00
2018-04-06T11:34:27.798Z,4.60
2018-04-06T11:36:54.996Z,6.03
2018-04-06T11:39:22.177Z,6.03
2018-04-06T11:41:49.672Z,4.60
2018-04-06T11:44:16.843Z,3.60
2018-04-06T11:46:44.043Z,3.77
2018-04-06T11:49:11.517Z,3.70
2018-04-06T11:51:38.947Z,4.87
2018-04-06T11:54:06.305Z,3.37
2018-04-06T11:56:33.487Z,3.60
2018-04-06T11:59:00.752Z,4.80
2018-04-06T12:01:27.952Z,4.00
2018-04-06T12:03:55.154Z,3.50
2018-04-06T12:06:22.450Z,5.27
2018-04-06T12:08:49.940Z,3.92
2018-04-06T12:11:17.141Z,4.30
2018-04-06T12:13:44.496Z,5.13
2018-04-06T12:16:11.717Z,6.43
2018-04-06T12:18:38.996Z,6.00
2018-04-06T12:21:06.204Z,3.60
2018-04-06T12:23:33.416Z,3.93
2018-04-06T12:26:00.624Z,4.80
2018-04-06T12:28:27.583Z,6.57
2018-04-06T12:30:54.538Z,9.73
2018-04-06T12:33:21.732Z,4.07
2018-04-06T12:35:49.206Z,5.87
2018-04-06T12:38:16.423Z,4.80
2018-04-06T12:40:43.621Z,6.20
2018-04-06T12:43:11.083Z,5.32
2018-04-06T12:45:38.288Z,5.20
2018-04-06T12:48:05.489Z,4.50
2018-04-06T12:50:32.700Z,6.50
2018-04-06T12:52:59.892Z,7.20
2018-04-06T12:55:27.083Z,5.40
2018-04-06T12:57:54.481Z,4.87
2018-04-06T13:00:21.437Z,7.03
2018-04-06T13:02:48.624Z,5.40
2018-04-06T13:05:15.808Z,5.27
2018-04-06T13:07:43.022Z,4.40
2018-04-06T13:10:10.498Z,8.95
2018-04-06T13:12:37.683Z,6.63
2018-04-06T13:15:04.891Z,5.97
2018-04-06T13:17:32.087Z,5.27
2018-04-06T13:19:59.289Z,4.20
2018-04-06T13:22:26.471Z,8.20
2018-04-06T13:24:53.969Z,4.62
2018-04-06T13:27:21.152Z,8.00
2018-04-06T13:29:48.135Z,8.63
2018-04-06T13:32:15.096Z,5.40
2018-04-06T13:34:42.279Z,6.33
2018-04-06T13:37:09.499Z,5.60
2018-04-06T13:39:36.903Z,8.43
2018-04-06T13:42:04.129Z,9.60
2018-04-06T13:44:31.334Z,4.33
2018-04-06T13:46:58.641Z,6.40
2018-04-06T13:49:25.607Z,5.63
2018-04-06T13:51:52.796Z,4.03
2018-04-06T13:54:20.009Z,8.73
2018-04-06T13:56:47.203Z,5.53
2018-04-06T13:59:14.181Z,4.73
2018-04-06T14:01:41.387Z,4.50
2018-04-06T14:04:08.614Z,7.37
2018-04-06T14:06:35.854Z,5.87
2018-04-06T14:09:03.076Z,5.95
2018-04-06T14:11:30.303Z,4.97
2018-04-06T14:13:57.807Z,5.70
2018-04-06T14:16:25.302Z,7.45
2018-04-06T14:18:52.785Z,4.85
2018-04-06T14:21:20.270Z,6.03
2018-04-06T14:23:47.500Z,5.90
2018-04-06T14:26:14.466Z,6.17
2018-04-06T14:28:41.664Z,8.17
2018-04-06T14:31:08.856Z,6.60
2018-04-06T14:33:36.275Z,6.40
2018-04-06T14:36:03.784Z,7.15
2018-04-06T14:38:31.267Z,6.57
2018-04-06T14:40:58.742Z,5.43
2018-04-06T14:43:26.322Z,6.32
2018-04-06T14:45:53.988Z,5.40
2018-04-06T14:48:21.468Z,7.00
2018-04-06T14:50:48.964Z,5.87
2018-04-06T14:53:16.494Z,9.77
2018-04-06T14:55:44.167Z,6.97
2018-04-06T14:58:11.666Z,5.22
2018-04-06T15:00:39.141Z,7.47
2018-04-06T15:03:06.619Z,6.00
2018-04-06T15:05:34.109Z,5.65
2018-04-06T15:08:01.629Z,4.65
2018-04-06T15:10:29.312Z,10.73
2018-04-06T15:12:56.525Z,5.70
2018-04-06T15:15:24.012Z,6.47
2018-04-06T15:17:51.561Z,5.15
2018-04-06T15:20:19.226Z,5.37
2018-04-06T15:22:46.700Z,7.10
2018-04-06T15:25:14.180Z,6.40
2018-04-06T15:27:41.671Z,7.82
2018-04-06T15:30:08.928Z,8.32
2018-04-06T15:32:36.133Z,4.80
2018-04-06T15:35:03.435Z,7.70
2018-04-06T15:37:30.616Z,4.57
2018-04-06T15:39:58.125Z,4.32
2018-04-06T15:42:25.622Z,5.05
2018-04-06T15:44:52.575Z,6.13
2018-04-06T15:47:19.559Z,9.70
2018-04-06T15:49:46.780Z,6.80
2018-04-06T15:52:14.268Z,5.20
2018-04-06T15:54:41.492Z,6.47
2018-04-06T15:57:08.984Z,5.80
2018-04-06T15:59:35.987Z,5.23
2018-04-06T16:02:03.469Z,7.87
2018-04-06T16:04:30.953Z,6.40
2018-04-06T16:06:58.137Z,6.13
2018-04-06T16:09:25.421Z,7.53
2018-04-06T16:11:52.379Z,7.83
2018-04-06T16:14:19.363Z,8.30
2018-04-06T16:16:46.567Z,6.20
2018-04-06T16:19:13.554Z,7.47
2018-04-06T16:21:40.744Z,11.17
2018-04-06T16:24:07.727Z,7.93
2018-04-06T16:26:34.924Z,9.57
2018-04-06T16:29:02.119Z,8.77
2018-04-06T16:31:29.520Z,9.90
2018-04-06T16:33:56.691Z,7.77
2018-04-06T16:36:23.927Z,11.17
2018-04-06T16:38:51.107Z,6.47
2018-04-06T16:41:18.345Z,8.73
2018-04-06T16:43:45.538Z,7.83
2018-04-06T16:46:12.757Z,8.10
2018-04-06T16:48:39.948Z,9.73
2018-04-06T16:51:07.156Z,7.17
2018-04-06T16:53:34.391Z,5.83
2018-04-06T16:56:01.608Z,9.43
2018-04-06T16:58:28.815Z,9.00
2018-04-06T17:00:56.009Z,5.60
2018-04-06T17:03:23.244Z,6.20
2018-04-06T17:05:51.131Z,8.60
2018-04-06T17:08:18.332Z,6.97
2018-04-06T17:10:45.524Z,9.07
2018-04-06T17:13:12.740Z,5.10
2018-04-06T17:15:40.147Z,7.07
2018-04-06T17:18:07.362Z,8.90
2018-04-06T17:20:34.557Z,8.33
2018-04-06T17:23:01.750Z,8.50
2018-04-06T17:25:29.293Z,6.70
2018-04-06T17:27:56.715Z,7.70
2018-04-06T17:30:23.926Z,7.00
2018-04-06T17:32:51.135Z,7.40
2018-04-06T17:35:18.352Z,7.63
2018-04-06T17:37:45.949Z,7.90
2018-04-06T17:40:13.406Z,8.35
2018-04-06T17:42:40.936Z,7.87
2018-04-06T17:45:08.451Z,7.55
2018-04-06T17:47:35.952Z,6.72
2018-04-06T17:50:03.440Z,8.30
2018-04-06T17:52:30.935Z,7.75
2018-04-06T17:54:58.427Z,7.57
2018-04-06T17:57:25.997Z,7.57
2018-04-06T17:59:53.489Z,7.20
2018-04-06T18:02:20.956Z,7.70
2018-04-06T18:04:48.450Z,5.68
2018-04-06T18:07:15.708Z,6.95
2018-04-06T18:09:43.214Z,7.20
2018-04-06T18:12:10.701Z,5.18
2018-04-06T18:14:38.214Z,7.18
2018-04-06T18:17:05.476Z,5.75
2018-04-06T18:19:32.989Z,7.95
2018-04-06T18:22:00.493Z,15.85
2018-04-06T18:24:27.959Z,8.57
2018-04-06T18:26:55.460Z,7.12
2018-04-06T18:29:22.933Z,6.62
2018-04-06T18:31:50.251Z,8.77
2018-04-06T18:34:17.740Z,9.73
2018-04-06T18:36:45.246Z,7.80
2018-04-06T18:39:12.722Z,9.20
2018-04-06T18:41:40.184Z,6.15
2018-04-06T18:44:07.455Z,6.18
2018-04-06T18:46:34.927Z,6.10
2018-04-06T18:49:02.440Z,5.25
2018-04-06T18:51:29.965Z,7.45
2018-04-06T18:53:57.459Z,5.90
2018-04-06T18:56:24.962Z,5.53
2018-04-06T18:58:52.483Z,7.60
2018-04-06T19:01:20.000Z,11.20
2018-04-06T19:03:47.506Z,6.15
2018-04-06T19:06:14.988Z,8.52
2018-04-06T19:08:42.494Z,9.32
2018-04-06T19:11:09.984Z,8.70
2018-04-06T19:13:37.474Z,6.35
2018-04-06T19:16:04.981Z,6.00
2018-04-06T19:18:32.493Z,8.68
2018-04-06T19:20:59.997Z,9.65
2018-04-06T19:23:29.930Z,7.03
2018-04-06T19:25:57.425Z,6.78
2018-04-06T19:28:24.940Z,8.68
2018-04-06T19:30:52.435Z,8.73
2018-04-06T19:33:19.920Z,9.13
2018-04-06T19:35:47.454Z,7.07
2018-04-06T19:38:14.974Z,7.78
2018-04-06T19:40:42.903Z,7.95
2018-04-06T19:43:10.928Z,5.75
2018-04-06T19:45:38.411Z,8.50
2018-04-06T19:48:05.941Z,7.80
2018-04-06T19:50:33.424Z,7.75
2018-04-06T19:53:00.923Z,6.80
2018-04-06T19:55:28.451Z,10.32
2018-04-06T19:57:55.952Z,10.95
2018-04-06T20:00:23.480Z,6.70
2018-04-06T20:02:50.980Z,10.52
2018-04-06T20:05:18.468Z,6.60
2018-04-06T20:07:45.956Z,8.55
2018-04-06T20:10:13.474Z,8.30
2018-04-06T20:12:40.986Z,10.77
2018-04-06T20:15:08.512Z,8.32
2018-04-06T20:17:36.056Z,11.45
2018-04-06T20:20:03.543Z,16.15
2018-04-06T20:22:31.079Z,14.80
2018-04-06T20:24:58.592Z,12.65
2018-04-06T20:27:26.084Z,11.07
2018-04-06T20:29:53.572Z,17.83
2018-04-06T20:32:21.069Z,12.60
2018-04-06T20:34:48.331Z,12.00
2018-04-06T20:37:15.667Z,14.05
2018-04-06T20:39:43.178Z,9.70
2018-04-06T20:42:10.665Z,9.20
2018-04-06T20:44:38.159Z,13.75
2018-04-06T20:47:05.636Z,8.82
2018-04-06T20:49:33.162Z,11.60
2018-04-06T20:52:00.665Z,12.43
2018-04-06T20:54:28.161Z,12.27
2018-04-06T20:56:55.677Z,9.65
2018-04-06T20:59:23.157Z,10.65
2018-04-06T21:01:50.653Z,9.93
2018-04-06T21:04:18.136Z,10.43
2018-04-06T21:06:45.620Z,9.10
2018-04-06T21:09:13.118Z,12.52
2018-04-06T21:11:40.616Z,10.23
2018-04-06T21:14:08.119Z,8.30
2018-04-06T21:16:35.592Z,8.52
2018-04-06T21:19:03.093Z,9.55
2018-04-06T21:21:30.572Z,8.57
2018-04-06T21:23:58.058Z,9.55
2018-04-06T21:26:26.126Z,11.57
2018-04-06T21:28:53.705Z,13.25
2018-04-06T21:31:21.199Z,10.60
2018-04-06T21:33:48.677Z,8.45
2018-04-06T21:36:16.185Z,10.20
2018-04-06T21:38:43.677Z,9.70
2018-04-06T21:41:11.164Z,14.77
2018-04-06T21:43:38.654Z,9.65
2018-04-06T21:46:06.157Z,9.35
2018-04-06T21:48:33.629Z,8.38
2018-04-06T21:51:01.135Z,10.73
2018-04-06T21:53:28.637Z,10.77
2018-04-06T21:55:55.901Z,11.50
2018-04-06T21:58:23.408Z,10.43
2018-04-06T22:00:50.899Z,10.20
2018-04-06T22:03:18.352Z,9.93
2018-04-06T22:05:45.840Z,7.72
2018-04-06T22:08:13.318Z,16.00
2018-04-06T22:10:40.568Z,9.82
2018-04-06T22:13:07.811Z,8.05
2018-04-06T22:15:35.296Z,9.70
2018-04-06T22:18:02.773Z,11.30
2018-04-06T22:20:30.262Z,9.38
2018-04-06T22:22:57.931Z,6.55
2018-04-06T22:25:25.408Z,8.68
2018-04-06T22:27:52.895Z,11.32
2018-04-06T22:30:20.372Z,9.15
2018-04-06T22:32:47.869Z,20.10
2018-04-06T22:35:15.350Z,9.05
2018-04-06T22:37:42.875Z,6.95
2018-04-06T22:40:10.123Z,10.38
2018-04-06T22:42:37.412Z,8.88
2018-04-06T22:45:04.880Z,7.87
2018-04-06T22:47:32.372Z,7.57
2018-04-06T22:49:59.846Z,7.60
2018-04-06T22:52:27.331Z,7.57
2018-04-06T22:54:54.829Z,13.27
2018-04-06T22:57:22.312Z,8.48
2018-04-06T22:59:49.808Z,10.90
2018-04-06T23:02:17.295Z,8.10
2018-04-06T23:04:44.772Z,9.30
2018-04-06T23:07:12.264Z,10.75
2018-04-06T23:09:39.751Z,10.45
2018-04-06T23:12:07.211Z,8.02
2018-04-06T23:14:34.687Z,17.45
2018-04-06T23:17:02.167Z,8.20
2018-04-06T23:19:29.643Z,9.10
2018-04-06T23:21:57.124Z,8.18
2018-04-06T23:24:24.612Z,8.95
2018-04-06T23:26:52.103Z,13.82
2018-04-06T23:29:19.583Z,9.07
2018-04-06T23:31:47.058Z,7.75
2018-04-06T23:34:14.534Z,8.13
2018-04-06T23:36:42.023Z,9.25
2018-04-06T23:39:09.552Z,9.95
2018-04-06T23:41:37.022Z,8.85
2018-04-06T23:44:04.525Z,8.48
2018-04-06T23:46:32.040Z,7.80
2018-04-06T23:48:59.540Z,10.45
2018-04-06T23:51:27.018Z,10.70
2018-04-06T23:53:54.503Z,7.40
2018-04-06T23:56:21.988Z,7.25
2018-04-06T23:58:49.472Z,9.57
